Pagoda, Texas
Current Conditions -  °F | °C
As of 5:15 AM on Monday 22 Dec 2014 (Local Time) from KDKR Reporting Station
Overcast Overcast  
Wind Chill: 57°   Ceiling: 300
Heat Index: 57°   Visibility: NA
Dew Point: 57°   Wind: 12mph
Humidity: 100%   Direction: 170°S
Pressure: 29.75"   Gusts: NA
Location:  30.9905°N, 95.3368°W
Report Text: KDKR 221115Z AUTO 17010KT OVC003 14/14 A2975 RMK AO2
Loading
Personal Weather Stations






























Interactive Weather Map New forecast layout! Learn more

10-Day Weather Forecast

Advertisements
Track Severe Weather on mobile